createdAt,value
2019-04-20T00:00:41.126Z,13.98
2019-04-20T00:03:05.889Z,11.05
2019-04-20T00:05:35.036Z,11.22
2019-04-20T00:08:08.949Z,13.48
2019-04-20T00:10:42.488Z,13.18
2019-04-20T00:13:16.362Z,13.93
2019-04-20T00:15:34.614Z,12.70
2019-04-20T00:18:06.676Z,14.47
2019-04-20T00:20:35.911Z,13.00
2019-04-20T00:23:22.896Z,12.10
2019-04-20T00:26:13.347Z,11.63
2019-04-20T00:28:52.246Z,11.35
2019-04-20T00:31:22.202Z,13.80
2019-04-20T00:33:48.223Z,13.22
2019-04-20T00:36:03.327Z,12.58
2019-04-20T00:38:35.198Z,13.32
2019-04-20T00:41:05.594Z,13.38
2019-04-20T00:43:35.402Z,17.25
2019-04-20T00:46:08.264Z,13.10
2019-04-20T00:48:42.356Z,13.78
2019-04-20T00:51:24.009Z,13.38
2019-04-20T00:53:38.091Z,11.90
2019-04-20T00:56:03.318Z,14.65
2019-04-20T00:58:42.113Z,17.12
2019-04-20T01:01:20.499Z,14.33
2019-04-20T01:03:52.160Z,15.70
2019-04-20T01:06:41.239Z,17.75
2019-04-20T01:08:59.202Z,15.72
2019-04-20T01:11:33.952Z,11.90
2019-04-20T01:14:02.991Z,14.28
2019-04-20T01:16:35.449Z,13.68
2019-04-20T01:18:57.224Z,15.53
2019-04-20T01:21:29.750Z,16.70
2019-04-20T01:24:01.517Z,13.65
2019-04-20T01:26:27.686Z,14.10
2019-04-20T01:29:08.774Z,12.63
2019-04-20T01:31:35.439Z,15.58
2019-04-20T01:34:04.272Z,15.23
2019-04-20T01:36:49.073Z,16.62
2019-04-20T01:39:12.493Z,16.97
2019-04-20T01:41:28.636Z,13.75
2019-04-20T01:43:56.930Z,16.02
2019-04-20T01:46:28.380Z,13.48
2019-04-20T01:49:00.203Z,16.73
2019-04-20T01:51:30.494Z,15.40
2019-04-20T01:54:12.059Z,18.40
2019-04-20T01:56:40.081Z,15.80
2019-04-20T01:59:32.030Z,18.32
2019-04-20T02:01:57.706Z,14.18
2019-04-20T02:04:27.909Z,14.28
2019-04-20T02:06:57.881Z,16.05
2019-04-20T02:09:27.340Z,15.38
2019-04-20T02:11:55.257Z,17.48
2019-04-20T02:14:32.427Z,19.05
2019-04-20T02:17:04.536Z,14.83
2019-04-20T02:19:39.322Z,12.68
2019-04-20T02:22:06.315Z,12.98
2019-04-20T02:24:23.835Z,15.32
2019-04-20T02:26:52.154Z,12.47
2019-04-20T02:29:43.064Z,16.87
2019-04-20T02:32:30.459Z,15.95
2019-04-20T02:34:55.315Z,12.88
2019-04-20T02:37:48.964Z,18.35
2019-04-20T02:40:12.762Z,12.30
2019-04-20T02:42:45.085Z,14.40
2019-04-20T02:47:40.501Z,14.20
2019-04-20T02:50:06.996Z,12.95
2019-04-20T02:55:09.401Z,11.95
2019-04-20T02:57:39.911Z,13.83
2019-04-20T03:02:23.543Z,12.55
2019-04-20T03:04:45.294Z,14.80
2019-04-20T03:07:22.010Z,17.82
2019-04-20T03:09:58.187Z,15.10
2019-04-20T03:12:33.430Z,12.03
2019-04-20T03:14:53.920Z,12.55
2019-04-20T03:17:33.884Z,14.05
2019-04-20T03:19:47.806Z,15.88
2019-04-20T03:22:48.355Z,12.82
2019-04-20T03:25:13.479Z,15.30
2019-04-20T03:27:30.887Z,15.78
2019-04-20T03:30:22.320Z,11.95
2019-04-20T03:33:06.786Z,12.68
2019-04-20T03:35:17.433Z,11.97
2019-04-20T03:37:44.437Z,13.18
2019-04-20T03:40:04.322Z,14.10
2019-04-20T03:42:18.315Z,11.78
2019-04-20T03:44:52.954Z,12.88
2019-04-20T03:47:26.542Z,11.90
2019-04-20T03:50:06.082Z,14.63
2019-04-20T03:52:36.545Z,13.32
2019-04-20T03:55:13.912Z,12.20
2019-04-20T03:57:45.820Z,15.68
2019-04-20T04:00:30.568Z,12.80
2019-04-20T04:03:29.384Z,12.13
2019-04-20T04:05:50.911Z,15.85
2019-04-20T04:08:20.705Z,11.28
2019-04-20T04:10:54.923Z,12.40
2019-04-20T04:13:18.762Z,12.73
2019-04-20T04:15:54.056Z,13.95
2019-04-20T04:18:26.282Z,12.63
2019-04-20T04:20:54.098Z,12.60
2019-04-20T04:23:36.684Z,16.65
2019-04-20T04:26:21.871Z,10.85
2019-04-20T04:28:37.231Z,10.80
2019-04-20T04:31:08.200Z,11.22
2019-04-20T04:33:53.156Z,15.83
2019-04-20T04:36:04.664Z,10.30
2019-04-20T04:38:44.670Z,12.25
2019-04-20T04:41:16.727Z,11.10
2019-04-20T04:43:40.117Z,12.50
2019-04-20T04:45:51.332Z,12.25
2019-04-20T04:48:27.454Z,11.78
2019-04-20T04:50:56.302Z,16.35
2019-04-20T04:53:30.259Z,13.22
2019-04-20T04:55:56.588Z,12.63
2019-04-20T04:58:19.615Z,14.00
2019-04-20T05:00:49.311Z,11.83
2019-04-20T05:03:35.871Z,10.82
2019-04-20T05:06:07.211Z,14.10
2019-04-20T05:08:27.410Z,13.22
2019-04-20T05:10:50.483Z,13.85
2019-04-20T05:13:19.908Z,11.83
2019-04-20T05:16:00.172Z,11.00
2019-04-20T05:18:41.541Z,13.93
2019-04-20T05:21:10.673Z,11.70
2019-04-20T05:23:41.437Z,12.30
2019-04-20T05:26:25.632Z,13.25
2019-04-20T05:28:46.068Z,10.70
2019-04-20T05:31:09.584Z,13.40
2019-04-20T05:34:03.530Z,10.60
2019-04-20T05:36:24.774Z,15.20
2019-04-20T05:39:02.745Z,12.33
2019-04-20T05:41:21.570Z,10.30
2019-04-20T05:44:05.064Z,12.18
2019-04-20T05:46:39.115Z,10.48
2019-04-20T05:49:08.952Z,12.03
2019-04-20T05:51:40.717Z,13.55
2019-04-20T05:54:07.201Z,11.22
2019-04-20T05:56:44.522Z,13.55
2019-04-20T05:59:09.155Z,10.38
2019-04-20T06:01:47.546Z,10.03
2019-04-20T06:04:10.059Z,9.68
2019-04-20T06:06:37.988Z,12.55
2019-04-20T06:11:44.512Z,11.90
2019-04-20T06:14:08.016Z,13.18
2019-04-20T06:16:55.877Z,13.03
2019-04-20T06:19:31.322Z,10.82
2019-04-20T06:22:14.963Z,10.35
2019-04-20T06:24:53.054Z,9.53
2019-04-20T06:27:16.411Z,10.05
2019-04-20T06:29:45.784Z,9.23
2019-04-20T06:32:21.107Z,11.05
2019-04-20T06:34:41.606Z,11.95
2019-04-20T06:37:10.119Z,11.93
2019-04-20T06:42:15.253Z,10.45
2019-04-20T06:44:39.295Z,10.40
2019-04-20T06:47:29.285Z,9.70
2019-04-20T06:49:38.207Z,11.10
2019-04-20T06:55:02.754Z,13.75
2019-04-20T06:57:35.768Z,12.50
2019-04-20T07:00:10.091Z,10.60
2019-04-20T07:02:44.621Z,11.57
2019-04-20T07:05:05.391Z,12.53
2019-04-20T07:07:38.048Z,11.63
2019-04-20T07:10:16.227Z,10.85
2019-04-20T07:12:34.379Z,26.27
2019-04-20T07:14:57.746Z,22.77
2019-04-20T07:17:58.949Z,12.18
2019-04-20T07:20:12.942Z,12.43
2019-04-20T07:25:14.279Z,15.38
2019-04-20T07:27:43.233Z,16.65
2019-04-20T07:30:12.705Z,13.90
2019-04-20T07:32:48.167Z,19.27
2019-04-20T07:35:16.997Z,22.17
2019-04-20T07:40:16.184Z,12.60
2019-04-20T07:42:46.796Z,13.72
2019-04-20T07:45:24.407Z,16.80
2019-04-20T07:47:46.663Z,13.38
2019-04-20T07:50:10.570Z,13.10
2019-04-20T07:52:39.626Z,12.78
2019-04-20T07:57:41.950Z,12.15
2019-04-20T08:00:13.729Z,18.92
2019-04-20T08:03:03.394Z,12.18
2019-04-20T08:05:25.535Z,16.77
2019-04-20T08:07:53.667Z,14.18
2019-04-20T08:10:32.567Z,13.95
2019-04-20T08:13:09.309Z,15.60
2019-04-20T08:15:44.560Z,18.67
2019-04-20T08:18:22.821Z,13.43
2019-04-20T08:20:36.869Z,13.60
2019-04-20T08:23:05.071Z,11.65
2019-04-20T08:25:23.976Z,13.35
2019-04-20T08:27:50.976Z,11.97
2019-04-20T08:30:57.057Z,15.90
2019-04-20T08:33:33.642Z,14.90
2019-04-20T08:36:04.992Z,14.83
2019-04-20T08:40:59.616Z,14.35
2019-04-20T08:43:43.626Z,13.28
2019-04-20T08:45:58.801Z,13.88
2019-04-20T08:48:34.551Z,14.58
2019-04-20T08:50:57.176Z,18.75
2019-04-20T08:53:30.873Z,14.40
2019-04-20T08:55:53.992Z,19.67
2019-04-20T08:58:11.418Z,16.50
2019-04-20T09:00:48.705Z,13.70
2019-04-20T09:03:18.110Z,12.45
2019-04-20T09:05:49.053Z,15.08
2019-04-20T09:08:17.829Z,16.30
2019-04-20T09:10:56.574Z,16.05
2019-04-20T09:13:20.814Z,15.08
2019-04-20T09:15:40.450Z,16.57
2019-04-20T09:18:17.503Z,14.67
2019-04-20T09:20:50.722Z,16.48
2019-04-20T09:23:30.044Z,16.23
2019-04-20T09:28:23.819Z,14.43
2019-04-20T09:31:07.306Z,11.97
2019-04-20T09:33:45.880Z,13.22
2019-04-20T09:36:16.655Z,13.03
2019-04-20T09:38:56.728Z,14.00
2019-04-20T09:41:39.503Z,11.25
2019-04-20T09:43:51.131Z,11.80
2019-04-20T09:46:19.959Z,13.55
2019-04-20T09:48:55.578Z,11.83
2019-04-20T09:51:37.560Z,11.57
2019-04-20T09:54:01.976Z,12.33
2019-04-20T09:56:32.198Z,12.40
2019-04-20T09:59:07.992Z,13.78
2019-04-20T10:01:29.025Z,14.33
2019-04-20T10:03:50.179Z,13.93
2019-04-20T10:06:23.026Z,13.85
2019-04-20T10:08:53.251Z,13.22
2019-04-20T10:11:17.716Z,12.88
2019-04-20T10:13:46.041Z,13.08
2019-04-20T10:16:15.666Z,10.95
2019-04-20T10:18:48.063Z,11.57
2019-04-20T10:21:13.938Z,10.68
2019-04-20T10:23:42.832Z,14.73
2019-04-20T10:26:12.279Z,9.88
2019-04-20T10:28:41.422Z,13.17
2019-04-20T10:31:10.676Z,10.65
2019-04-20T10:33:39.626Z,13.40
2019-04-20T10:36:09.881Z,12.88
2019-04-20T10:41:12.986Z,11.68
2019-04-20T10:43:36.265Z,11.57
2019-04-20T10:46:04.738Z,12.33
2019-04-20T10:48:41.299Z,9.48
2019-04-20T10:51:03.205Z,13.98
2019-04-20T10:53:32.199Z,10.03
2019-04-20T10:56:01.247Z,9.85
2019-04-20T10:58:31.761Z,9.25
2019-04-20T11:01:00.039Z,10.93
2019-04-20T11:03:28.919Z,14.00
2019-04-20T11:05:58.555Z,18.35
2019-04-20T11:08:26.840Z,13.62
2019-04-20T11:11:04.641Z,10.80
2019-04-20T11:13:25.565Z,11.55
2019-04-20T11:15:54.668Z,10.68
2019-04-20T11:18:22.974Z,11.05
2019-04-20T11:20:51.183Z,10.82
2019-04-20T11:23:20.345Z,10.60
2019-04-20T11:25:48.656Z,9.93
2019-04-20T11:28:16.876Z,11.25
2019-04-20T11:30:46.071Z,13.05
2019-04-20T11:33:14.465Z,11.43
2019-04-20T11:35:43.678Z,11.45
2019-04-20T11:38:15.440Z,9.10
2019-04-20T11:40:42.531Z,9.98
2019-04-20T11:43:11.486Z,12.15
2019-04-20T11:45:40.584Z,11.20
2019-04-20T11:48:09.548Z,12.15
2019-04-20T11:50:39.841Z,12.10
2019-04-20T11:55:36.284Z,12.37
2019-04-20T11:58:05.888Z,14.55
2019-04-20T12:00:53.886Z,11.28
2019-04-20T12:03:28.189Z,11.48
2019-04-20T12:05:56.967Z,13.38
2019-04-20T12:08:22.963Z,11.57
2019-04-20T12:10:54.762Z,11.03
2019-04-20T12:13:22.393Z,10.20
2019-04-20T12:15:51.860Z,9.60
2019-04-20T12:18:20.164Z,12.80
2019-04-20T12:20:48.373Z,11.97
2019-04-20T12:23:16.579Z,11.50
2019-04-20T12:25:46.199Z,14.50
2019-04-20T12:28:15.479Z,9.88
2019-04-20T12:30:43.947Z,11.43
2019-04-20T12:33:13.471Z,11.75
2019-04-20T12:35:42.626Z,13.08
2019-04-20T12:38:10.867Z,12.18
2019-04-20T12:40:39.935Z,10.50
2019-04-20T12:43:09.047Z,10.75
2019-04-20T12:45:37.779Z,10.93
2019-04-20T12:48:06.072Z,11.08
2019-04-20T12:50:35.324Z,11.25
2019-04-20T12:53:04.515Z,9.50
2019-04-20T12:55:34.648Z,13.18
2019-04-20T12:58:02.951Z,12.93
2019-04-20T13:00:49.812Z,11.35
2019-04-20T13:03:19.418Z,11.18
2019-04-20T13:05:47.941Z,12.47
2019-04-20T13:08:23.278Z,11.65
2019-04-20T13:10:48.664Z,11.85
2019-04-20T13:13:30.581Z,11.95
2019-04-20T13:16:18.484Z,11.28
2019-04-20T13:18:52.759Z,9.30
2019-04-20T13:21:21.195Z,10.38
2019-04-20T13:23:49.404Z,11.12
2019-04-20T13:26:17.656Z,13.93
2019-04-20T13:28:46.772Z,11.63
2019-04-20T13:31:15.756Z,11.13
2019-04-20T13:33:45.220Z,11.53
2019-04-20T13:36:14.403Z,8.93
2019-04-20T13:38:44.111Z,10.70
2019-04-20T13:41:13.746Z,16.02
2019-04-20T13:43:42.050Z,9.83
2019-04-20T13:46:11.137Z,10.20
2019-04-20T13:48:39.429Z,11.13
2019-04-20T13:51:07.925Z,10.98
2019-04-20T13:53:37.124Z,9.28
2019-04-20T13:56:06.029Z,11.05
2019-04-20T13:58:41.733Z,10.50
2019-04-20T14:01:23.486Z,10.13
2019-04-20T14:04:12.741Z,10.38
2019-04-20T14:06:41.437Z,11.03
2019-04-20T14:09:09.881Z,10.55
2019-04-20T14:11:39.192Z,10.72
2019-04-20T14:14:08.380Z,8.88
2019-04-20T14:16:36.969Z,11.90
2019-04-20T14:19:05.238Z,13.78
2019-04-20T14:21:34.292Z,10.60
2019-04-20T14:24:04.343Z,14.97
2019-04-20T14:29:03.029Z,9.53
2019-04-20T14:31:32.181Z,10.68
2019-04-20T14:34:00.465Z,10.63
2019-04-20T14:36:28.841Z,10.98
2019-04-20T14:38:58.282Z,11.33
2019-04-20T14:41:26.538Z,11.83
2019-04-20T14:43:55.261Z,10.48
2019-04-20T14:46:26.172Z,11.33
2019-04-20T14:48:54.626Z,10.78
2019-04-20T14:51:23.746Z,10.03
2019-04-20T14:53:52.024Z,12.25
2019-04-20T14:56:20.681Z,9.80
2019-04-20T14:59:07.543Z,10.45
2019-04-20T15:01:40.860Z,11.20
2019-04-20T15:04:15.133Z,10.38
2019-04-20T15:06:39.985Z,9.48
2019-04-20T15:09:08.779Z,10.05
2019-04-20T15:11:40.785Z,11.75
2019-04-20T15:14:08.956Z,10.40
2019-04-20T15:16:38.457Z,8.78
2019-04-20T15:19:09.602Z,10.32
2019-04-20T15:21:39.964Z,10.45
2019-04-20T15:26:36.292Z,8.75
2019-04-20T15:29:04.548Z,12.15
2019-04-20T15:31:32.746Z,14.85
2019-04-20T15:34:03.326Z,10.80
2019-04-20T15:36:32.048Z,11.30
2019-04-20T15:39:01.138Z,9.70
2019-04-20T15:41:29.451Z,11.38
2019-04-20T15:43:59.411Z,9.18
2019-04-20T15:46:27.801Z,11.00
2019-04-20T15:48:56.005Z,10.38
2019-04-20T15:51:25.816Z,10.43
2019-04-20T15:53:54.030Z,10.68
2019-04-20T15:56:24.590Z,9.98
2019-04-20T15:58:54.291Z,10.35
2019-04-20T16:01:24.389Z,11.75
2019-04-20T16:03:55.260Z,12.25
2019-04-20T16:06:25.208Z,9.88
2019-04-20T16:08:56.355Z,12.70
2019-04-20T16:11:24.704Z,12.68
2019-04-20T16:13:55.413Z,13.65
2019-04-20T16:16:23.810Z,11.20
2019-04-20T16:18:52.793Z,10.60
2019-04-20T16:21:25.883Z,11.00
2019-04-20T16:23:52.662Z,11.45
2019-04-20T16:26:25.892Z,12.05
2019-04-20T16:28:55.522Z,12.00
2019-04-20T16:31:24.583Z,11.57
2019-04-20T16:33:55.603Z,10.08
2019-04-20T16:36:22.925Z,9.63
2019-04-20T16:38:51.203Z,9.98
2019-04-20T16:41:20.179Z,12.10
2019-04-20T16:43:50.034Z,12.18
2019-04-20T16:46:22.482Z,10.78
2019-04-20T16:48:48.791Z,8.10
2019-04-20T16:51:16.994Z,8.60
2019-04-20T16:53:45.732Z,9.23
2019-04-20T16:56:16.091Z,8.95
2019-04-20T16:58:49.236Z,9.28
2019-04-20T17:01:15.360Z,12.10
2019-04-20T17:03:52.196Z,10.98
2019-04-20T17:06:13.906Z,8.08
2019-04-20T17:08:44.329Z,8.43
2019-04-20T17:11:12.052Z,8.08
2019-04-20T17:13:47.549Z,10.18
2019-04-20T17:16:10.754Z,7.60
2019-04-20T17:18:39.320Z,7.10
2019-04-20T17:21:14.639Z,9.50
2019-04-20T17:23:39.077Z,9.58
2019-04-20T17:26:08.338Z,9.73
2019-04-20T17:28:38.653Z,9.35
2019-04-20T17:31:09.220Z,7.87
2019-04-20T17:33:50.545Z,12.75
2019-04-20T17:36:15.590Z,8.48
2019-04-20T17:38:46.071Z,9.23
2019-04-20T17:41:31.045Z,8.90
2019-04-20T17:44:04.167Z,9.48
2019-04-20T17:46:19.209Z,11.38
2019-04-20T17:48:59.492Z,9.18
2019-04-20T17:51:29.132Z,11.83
2019-04-20T17:53:49.131Z,9.55
2019-04-20T17:56:12.156Z,10.23
2019-04-20T17:58:41.366Z,9.85
2019-04-20T18:01:28.290Z,9.28
2019-04-20T18:04:25.256Z,8.80
2019-04-20T18:06:41.739Z,8.80
2019-04-20T18:09:07.068Z,11.28
2019-04-20T18:11:27.405Z,11.35
2019-04-20T18:14:03.380Z,10.10
2019-04-20T18:16:52.447Z,7.78
2019-04-20T18:19:17.308Z,7.33
2019-04-20T18:21:43.561Z,10.38
2019-04-20T18:24:25.542Z,7.45
2019-04-20T18:26:59.149Z,10.38
2019-04-20T18:29:32.617Z,10.60
2019-04-20T18:32:01.773Z,8.65
2019-04-20T18:34:34.265Z,9.30
2019-04-20T18:37:07.478Z,11.18
2019-04-20T18:39:39.901Z,8.13
2019-04-20T18:42:10.082Z,9.33
2019-04-20T18:44:55.736Z,9.33
2019-04-20T18:47:26.135Z,8.15
2019-04-20T18:49:44.939Z,6.35
2019-04-20T18:52:02.138Z,9.28
2019-04-20T18:54:35.265Z,6.17
2019-04-20T18:57:01.598Z,8.00
2019-04-20T18:59:39.988Z,7.22
2019-04-20T19:02:01.172Z,11.08
2019-04-20T19:04:30.045Z,7.00
2019-04-20T19:06:59.568Z,6.33
2019-04-20T19:09:30.446Z,6.83
2019-04-20T19:12:02.264Z,7.97
2019-04-20T19:14:49.197Z,6.70
2019-04-20T19:17:29.067Z,6.00
2019-04-20T19:19:57.900Z,5.37
2019-04-20T19:22:24.314Z,6.83
2019-04-20T19:24:53.807Z,4.42
2019-04-20T19:27:32.008Z,4.57
2019-04-20T19:29:59.671Z,4.87
2019-04-20T19:32:35.952Z,5.15
2019-04-20T19:35:01.575Z,5.28
2019-04-20T19:37:28.568Z,8.13
2019-04-20T19:40:06.025Z,4.33
2019-04-20T19:42:34.916Z,9.03
2019-04-20T19:45:10.253Z,10.58
2019-04-20T19:47:42.883Z,6.00
2019-04-20T19:50:21.933Z,5.53
2019-04-20T19:52:50.219Z,6.12
2019-04-20T19:55:10.823Z,5.22
2019-04-20T19:57:42.748Z,8.63
2019-04-20T19:59:55.917Z,5.65
2019-04-20T20:02:23.601Z,7.58
2019-04-20T20:04:58.749Z,5.72
2019-04-20T20:07:28.703Z,6.90
2019-04-20T20:09:55.671Z,8.85
2019-04-20T20:12:21.664Z,5.08
2019-04-20T20:14:51.447Z,8.35
2019-04-20T20:17:44.430Z,6.80
2019-04-20T20:20:14.390Z,6.70
2019-04-20T20:22:30.250Z,6.72
2019-04-20T20:24:49.570Z,7.20
2019-04-20T20:27:25.820Z,6.40
2019-04-20T20:29:59.721Z,5.62
2019-04-20T20:32:31.615Z,5.37
2019-04-20T20:34:56.143Z,6.62
2019-04-20T20:37:27.149Z,4.70
2019-04-20T20:39:58.427Z,7.47
2019-04-20T20:42:29.580Z,5.70
2019-04-20T20:44:55.136Z,7.53
2019-04-20T20:47:41.807Z,5.37
2019-04-20T20:50:17.406Z,9.00
2019-04-20T20:52:31.818Z,5.85
2019-04-20T20:55:01.948Z,5.55
2019-04-20T20:57:24.282Z,7.25
2019-04-20T20:59:55.498Z,6.70
2019-04-20T21:02:24.395Z,5.28
2019-04-20T21:04:48.762Z,7.60
2019-04-20T21:07:18.183Z,7.20
2019-04-20T21:09:48.284Z,6.85
2019-04-20T21:12:18.679Z,5.78
2019-04-20T21:14:47.222Z,6.60
2019-04-20T21:17:18.345Z,8.50
2019-04-20T21:20:05.391Z,7.65
2019-04-20T21:22:27.281Z,8.38
2019-04-20T21:24:56.955Z,10.78
2019-04-20T21:27:25.954Z,9.25
2019-04-20T21:29:57.821Z,9.45
2019-04-20T21:32:24.067Z,10.95
2019-04-20T21:34:58.470Z,9.05
2019-04-20T21:37:23.973Z,7.35
2019-04-20T21:39:58.961Z,9.63
2019-04-20T21:42:25.229Z,10.20
2019-04-20T21:45:04.010Z,7.95
2019-04-20T21:47:30.744Z,11.25
2019-04-20T21:50:09.848Z,7.30
2019-04-20T21:52:29.955Z,7.20
2019-04-20T21:54:52.253Z,8.10
2019-04-20T21:57:20.450Z,8.88
2019-04-20T21:59:53.454Z,9.73
2019-04-20T22:02:24.651Z,9.60
2019-04-20T22:04:49.343Z,7.12
2019-04-20T22:07:18.509Z,9.53
2019-04-20T22:09:50.354Z,7.55
2019-04-20T22:12:18.128Z,9.10
2019-04-20T22:14:50.940Z,11.75
2019-04-20T22:17:23.586Z,14.73
2019-04-20T22:20:02.596Z,10.05
2019-04-20T22:22:31.348Z,12.93
2019-04-20T22:25:02.680Z,14.53
2019-04-20T22:27:23.610Z,10.55
2019-04-20T22:29:46.251Z,9.85
2019-04-20T22:32:17.306Z,13.55
2019-04-20T22:34:47.492Z,8.45
2019-04-20T22:37:21.195Z,13.72
2019-04-20T22:39:52.336Z,10.55
2019-04-20T22:42:18.354Z,11.22
2019-04-20T22:44:54.734Z,12.53
2019-04-20T22:50:03.642Z,9.25
2019-04-20T22:52:34.768Z,8.63
2019-04-20T22:55:12.496Z,9.90
2019-04-20T22:57:31.607Z,12.18
2019-04-20T22:59:58.430Z,7.90
2019-04-20T23:02:21.200Z,12.18
2019-04-20T23:04:48.751Z,9.38
2019-04-20T23:07:17.061Z,9.23
2019-04-20T23:09:51.237Z,8.93
2019-04-20T23:12:20.703Z,8.35
2019-04-20T23:14:46.563Z,8.70
2019-04-20T23:17:18.449Z,14.13
2019-04-20T23:19:49.428Z,10.15
2019-04-20T23:22:16.033Z,9.30
2019-04-20T23:24:44.961Z,9.80
2019-04-20T23:27:20.025Z,11.33
2019-04-20T23:29:43.636Z,8.18
2019-04-20T23:32:15.617Z,10.35
2019-04-20T23:34:43.005Z,9.78
2019-04-20T23:37:17.005Z,11.63
2019-04-20T23:39:44.988Z,12.70
2019-04-20T23:44:57.677Z,9.70
2019-04-20T23:50:15.310Z,9.00
2019-04-20T23:52:54.095Z,10.30
2019-04-20T23:55:06.047Z,8.98
2019-04-20T23:57:33.666Z,9.75
